Time;durP1;ratioP1;P1;durP2;ratioP2;P2;SDS_P1;SDS_P2;PMS_P1;PMS_P2;Temp;Humidity;BMP_temperature;BMP_pressure;BME280_temperature;BME280_humidity;BME280_pressure;Samples;Min_cycle;Max_cycle;Signal;HPM_P1;HPM_P2
2023/10/26 00:01:25;;;;;;;7.95;5.85;;;18.20;99.90;;;;;;4883858;29;20041;-83
2023/10/26 00:03:52;;;;;;;15.10;6.35;;;18.30;99.90;;;;;;4899690;29;20032;-83
2023/10/26 00:06:18;;;;;;;10.23;7.10;;;18.30;99.90;;;;;;4884073;29;20176;-83
2023/10/26 00:08:45;;;;;;;7.10;6.50;;;18.40;99.90;;;;;;4900901;29;20103;-83
2023/10/26 00:11:11;;;;;;;8.98;6.90;;;18.50;99.90;;;;;;4882587;29;20406;-82
2023/10/26 00:13:38;;;;;;;9.27;7.38;;;18.60;99.90;;;;;;4902211;29;20047;-83
2023/10/26 00:16:04;;;;;;;10.07;7.38;;;18.60;99.90;;;;;;4886679;29;20549;-83
2023/10/26 00:18:31;;;;;;;11.07;7.82;;;18.70;99.90;;;;;;4902497;29;20176;-83
2023/10/26 00:20:59;;;;;;;8.80;7.68;;;18.80;99.90;;;;;;4896210;29;20088;-83
2023/10/26 00:23:25;;;;;;;12.80;8.80;;;18.90;99.90;;;;;;4881789;29;20399;-83
2023/10/26 00:25:52;;;;;;;13.95;9.18;;;18.90;99.90;;;;;;4880564;29;20070;-82
2023/10/26 00:28:18;;;;;;;9.45;8.63;;;19.00;99.90;;;;;;4880585;29;20037;-83
2023/10/26 00:30:45;;;;;;;12.15;9.30;;;19.10;99.90;;;;;;4872456;29;20475;-83
2023/10/26 00:33:12;;;;;;;14.80;9.00;;;19.10;99.90;;;;;;4896154;29;20037;-83
2023/10/26 00:35:38;;;;;;;10.80;8.40;;;19.10;99.90;;;;;;4881614;29;20032;-83
2023/10/26 00:38:05;;;;;;;10.93;8.60;;;18.90;99.90;;;;;;4895978;29;20025;-83
2023/10/26 00:40:31;;;;;;;8.98;7.75;;;18.80;99.90;;;;;;4884766;29;20033;-83
2023/10/26 00:43:04;;;;;;;15.10;7.90;;;18.60;99.90;;;;;;4876658;29;20039;-83
2023/10/26 00:45:36;;;;;;;8.47;7.77;;;18.50;99.90;;;;;;4877066;29;20040;-83
2023/10/26 00:48:05;;;;;;;11.80;7.72;;;18.50;99.90;;;;;;4876874;29;20306;-83
2023/10/26 00:50:32;;;;;;;16.02;7.65;;;18.50;99.90;;;;;;4885348;29;20024;-83
2023/10/26 00:53:00;;;;;;;10.63;8.60;;;18.50;99.90;;;;;;4895587;29;20028;-82
2023/10/26 00:55:27;;;;;;;11.50;8.57;;;18.50;99.90;;;;;;4880147;29;20056;-83
2023/10/26 00:57:53;;;;;;;10.48;8.80;;;18.60;99.90;;;;;;4880087;29;20124;-83
2023/10/26 01:00:21;;;;;;;10.70;9.80;;;18.60;99.90;;;;;;4888020;29;20025;-83
2023/10/26 01:02:48;;;;;;;10.35;9.40;;;18.80;99.90;;;;;;4862003;29;20046;-84
2023/10/26 01:05:15;;;;;;;11.32;10.23;;;18.90;99.90;;;;;;4876613;29;20057;-83
2023/10/26 01:07:42;;;;;;;11.13;10.13;;;18.90;99.90;;;;;;4876606;29;20046;-83
2023/10/26 01:10:08;;;;;;;15.27;10.20;;;18.90;99.90;;;;;;4881716;29;20033;-83
2023/10/26 01:12:36;;;;;;;13.25;10.60;;;18.90;99.90;;;;;;4895187;29;20081;-83
2023/10/26 01:15:03;;;;;;;11.40;10.30;;;19.00;99.90;;;;;;4879511;29;20055;-83
2023/10/26 01:17:30;;;;;;;11.23;10.40;;;19.10;99.90;;;;;;4880848;29;20517;-82
2023/10/26 01:19:56;;;;;;;10.73;9.82;;;19.10;99.90;;;;;;4877135;29;20030;-82
2023/10/26 01:22:29;;;;;;;17.70;11.02;;;19.10;99.90;;;;;;4861573;29;20051;-83
2023/10/26 01:24:56;;;;;;;13.85;10.27;;;19.10;99.90;;;;;;4882440;29;20036;-83
2023/10/26 01:27:23;;;;;;;11.80;9.90;;;19.10;99.90;;;;;;4882450;29;20482;-83
2023/10/26 01:29:49;;;;;;;11.68;9.80;;;19.10;99.90;;;;;;4901638;29;20025;-83
2023/10/26 01:32:16;;;;;;;14.68;9.50;;;19.10;99.90;;;;;;4900924;29;20072;-83
2023/10/26 01:34:42;;;;;;;12.10;8.98;;;19.20;99.90;;;;;;4901009;29;20032;-83
2023/10/26 01:37:12;;;;;;;12.20;9.10;;;19.20;99.90;;;;;;4900947;29;20036;-83
2023/10/26 01:39:38;;;;;;;13.02;9.65;;;19.30;99.90;;;;;;4915738;29;20085;-83
2023/10/26 01:42:09;;;;;;;9.88;8.10;;;19.30;99.90;;;;;;4882030;29;20048;-83
2023/10/26 01:44:37;;;;;;;9.07;7.65;;;19.30;99.90;;;;;;4882021;29;20041;-82
2023/10/26 01:47:04;;;;;;;11.73;7.63;;;19.30;99.90;;;;;;4882102;29;20039;-83
2023/10/26 01:49:30;;;;;;;9.77;7.60;;;19.30;99.90;;;;;;4898579;29;20025;-83
2023/10/26 01:51:57;;;;;;;12.65;7.40;;;19.30;99.90;;;;;;4900399;29;20034;-82
2023/10/26 01:54:23;;;;;;;8.10;7.40;;;19.30;99.90;;;;;;4900619;29;20032;-82
2023/10/26 01:56:53;;;;;;;10.15;7.07;;;19.20;99.90;;;;;;4885121;29;20032;-83
2023/10/26 01:59:25;;;;;;;8.68;7.10;;;19.10;99.90;;;;;;4916264;29;20028;-83
2023/10/26 02:01:55;;;;;;;8.43;6.90;;;19.10;99.90;;;;;;4897987;29;20107;-82
2023/10/26 02:04:22;;;;;;;13.88;7.32;;;19.00;99.90;;;;;;4881580;29;20517;-83
2023/10/26 02:06:49;;;;;;;14.98;6.95;;;18.90;99.90;;;;;;4882541;29;20410;-82
2023/10/26 02:09:15;;;;;;;11.02;6.47;;;18.90;99.90;;;;;;4900566;29;20027;-82
2023/10/26 02:11:42;;;;;;;10.25;6.88;;;18.90;99.90;;;;;;4915938;29;20024;-83
2023/10/26 02:14:09;;;;;;;9.00;6.30;;;18.80;99.90;;;;;;4916147;29;20028;-83
2023/10/26 02:16:35;;;;;;;11.35;6.10;;;18.80;99.90;;;;;;4916212;29;20032;-83
2023/10/26 02:19:02;;;;;;;9.20;6.28;;;18.80;99.90;;;;;;4900378;29;20111;-81
2023/10/26 02:21:28;;;;;;;10.15;5.90;;;18.70;99.90;;;;;;4891537;29;20060;-83
2023/10/26 02:23:54;;;;;;;7.75;5.40;;;18.60;99.90;;;;;;4861146;29;20504;-83
2023/10/26 02:26:21;;;;;;;5.30;4.90;;;18.40;99.90;;;;;;4875275;29;20113;-83
2023/10/26 02:28:47;;;;;;;13.50;5.53;;;18.30;99.90;;;;;;4859769;29;20053;-83
2023/10/26 02:31:16;;;;;;;10.75;5.60;;;18.20;99.90;;;;;;4886852;29;20040;-82
2023/10/26 02:33:43;;;;;;;12.15;5.07;;;18.10;99.90;;;;;;4877584;29;20044;-83
2023/10/26 02:36:10;;;;;;;10.30;4.50;;;18.00;99.90;;;;;;4862947;29;20578;-83
2023/10/26 02:38:36;;;;;;;12.48;5.30;;;17.90;99.90;;;;;;4878186;29;20044;-82
2023/10/26 02:41:07;;;;;;;11.18;4.03;;;17.90;99.90;;;;;;4874116;29;20040;-83
2023/10/26 02:43:33;;;;;;;10.02;4.13;;;17.80;99.90;;;;;;4874956;29;20048;-82
2023/10/26 02:46:08;;;;;;;8.98;4.28;;;17.70;99.90;;;;;;4860974;29;20041;-82
2023/10/26 02:48:35;;;;;;;5.65;3.83;;;17.70;99.90;;;;;;4875158;29;20066;-83
2023/10/26 02:51:01;;;;;;;6.85;4.07;;;17.70;99.90;;;;;;4859890;29;20025;-84
2023/10/26 02:53:28;;;;;;;8.55;3.72;;;17.80;99.90;;;;;;4861978;29;20037;-82
2023/10/26 02:55:54;;;;;;;15.60;4.75;;;18.00;99.90;;;;;;4879363;29;20032;-82
2023/10/26 02:58:23;;;;;;;8.00;3.78;;;18.20;99.90;;;;;;4877857;29;20037;-83
2023/10/26 03:00:52;;;;;;;10.45;3.80;;;18.40;99.90;;;;;;4879043;29;20034;-82
2023/10/26 03:03:18;;;;;;;9.65;4.20;;;18.50;99.90;;;;;;4877865;29;20504;-83
2023/10/26 03:05:45;;;;;;;6.68;4.60;;;18.50;99.90;;;;;;4877924;29;20411;-82
2023/10/26 03:08:11;;;;;;;8.10;4.28;;;18.60;99.90;;;;;;4879191;29;20033;-83
2023/10/26 03:10:38;;;;;;;10.38;5.03;;;18.70;99.90;;;;;;4879163;29;20017;-82
2023/10/26 03:13:07;;;;;;;11.23;5.25;;;18.70;99.90;;;;;;4878213;29;20033;-82
2023/10/26 03:15:33;;;;;;;9.77;5.07;;;18.80;99.90;;;;;;4893119;29;20039;-82
2023/10/26 03:18:00;;;;;;;9.75;5.72;;;18.80;99.90;;;;;;4879021;29;20055;-82
2023/10/26 03:20:26;;;;;;;14.60;6.03;;;18.80;99.90;;;;;;4878909;29;20033;-82
2023/10/26 03:22:53;;;;;;;10.57;5.53;;;18.80;99.90;;;;;;4876756;29;20388;-83
2023/10/26 03:25:21;;;;;;;16.25;6.13;;;18.80;99.90;;;;;;4881054;29;20108;-82
2023/10/26 03:27:47;;;;;;;7.15;6.30;;;18.80;99.90;;;;;;4881329;29;20036;-81
2023/10/26 03:30:15;;;;;;;15.80;6.30;;;18.80;99.90;;;;;;4881246;29;20051;-83
2023/10/26 03:32:43;;;;;;;14.25;5.90;;;18.80;99.90;;;;;;4875382;29;20040;-83
2023/10/26 03:35:09;;;;;;;13.23;6.10;;;18.70;99.90;;;;;;4881256;29;20029;-83
2023/10/26 03:37:36;;;;;;;9.65;6.60;;;18.70;99.90;;;;;;4881305;29;20116;-83
2023/10/26 03:40:23;;;;;;;9.20;5.72;;;18.70;99.90;;;;;;4881118;29;20025;-81
2023/10/26 03:42:49;;;;;;;14.55;6.10;;;18.60;99.90;;;;;;4894751;29;20096;-81
2023/10/26 03:45:15;;;;;;;8.55;5.78;;;18.60;99.90;;;;;;4882106;29;20036;-84
2023/10/26 03:47:42;;;;;;;14.32;6.47;;;18.60;99.90;;;;;;4881216;29;20029;-83
2023/10/26 03:50:09;;;;;;;11.90;6.00;;;18.50;99.90;;;;;;4880864;29;20029;-82
2023/10/26 03:52:36;;;;;;;15.68;6.10;;;18.50;99.90;;;;;;4881580;29;20496;-82
2023/10/26 03:55:04;;;;;;;12.60;6.28;;;18.50;99.90;;;;;;4881962;29;20529;-82
2023/10/26 03:57:33;;;;;;;9.85;5.97;;;18.50;99.90;;;;;;4881984;29;20077;-82
2023/10/26 04:00:00;;;;;;;8.77;5.82;;;18.50;99.90;;;;;;4882075;29;20029;-82
2023/10/26 04:02:27;;;;;;;10.95;5.72;;;18.40;99.90;;;;;;4880452;29;20391;-81
2023/10/26 04:04:56;;;;;;;16.23;5.88;;;18.30;99.90;;;;;;4881943;29;20100;-82
2023/10/26 04:07:23;;;;;;;8.82;5.25;;;18.20;99.90;;;;;;4881338;29;20495;-82
2023/10/26 04:09:50;;;;;;;8.68;5.25;;;18.20;99.90;;;;;;4880481;29;20029;-82
2023/10/26 04:12:16;;;;;;;13.48;5.30;;;18.10;99.90;;;;;;4880091;29;20051;-82
2023/10/26 04:14:43;;;;;;;8.45;4.93;;;18.10;99.90;;;;;;4881771;29;20029;-82
2023/10/26 04:17:11;;;;;;;9.90;5.10;;;18.10;99.90;;;;;;4880437;29;20033;-82
2023/10/26 04:19:38;;;;;;;10.02;4.95;;;18.10;99.90;;;;;;4880304;29;20033;-82
2023/10/26 04:22:05;;;;;;;12.95;4.60;;;18.00;99.90;;;;;;4880014;29;20528;-83
2023/10/26 04:24:33;;;;;;;7.38;4.50;;;18.00;99.90;;;;;;4880734;29;20036;-84
2023/10/26 04:27:00;;;;;;;14.63;5.05;;;18.00;99.90;;;;;;4880901;29;20044;-84
2023/10/26 04:29:26;;;;;;;8.35;4.57;;;18.00;99.90;;;;;;4880932;29;20487;-85
2023/10/26 04:31:57;;;;;;;9.00;4.45;;;17.90;99.90;;;;;;4877817;29;20037;-84
2023/10/26 04:34:24;;;;;;;11.70;4.53;;;17.90;99.90;;;;;;4880852;29;20505;-84
2023/10/26 04:36:50;;;;;;;14.05;5.18;;;17.90;99.90;;;;;;4880652;29;20471;-84
2023/10/26 04:39:17;;;;;;;11.70;4.38;;;17.80;99.90;;;;;;4880498;29;20491;-84
2023/10/26 04:41:43;;;;;;;11.60;4.38;;;17.70;99.90;;;;;;4880320;29;20395;-84
2023/10/26 04:44:11;;;;;;;19.30;4.80;;;17.70;99.90;;;;;;4880475;29;20120;-83
2023/10/26 04:46:38;;;;;;;6.78;4.25;;;17.70;99.90;;;;;;4880395;29;20128;-83
2023/10/26 04:49:04;;;;;;;7.20;4.57;;;17.60;99.90;;;;;;4879723;29;20032;-84
2023/10/26 04:51:32;;;;;;;6.25;4.13;;;17.60;99.90;;;;;;4886281;29;20036;-84
2023/10/26 04:53:58;;;;;;;6.05;4.32;;;17.60;99.90;;;;;;4880312;29;20028;-83
2023/10/26 04:56:28;;;;;;;8.45;4.25;;;17.60;99.90;;;;;;4880966;29;20029;-84
2023/10/26 04:58:55;;;;;;;10.55;4.85;;;17.60;99.90;;;;;;4880341;29;20096;-84
2023/10/26 05:01:21;;;;;;;8.10;4.22;;;17.60;99.90;;;;;;4880157;29;20051;-84
2023/10/26 05:03:48;;;;;;;9.82;4.28;;;17.50;99.90;;;;;;4880360;29;20033;-81
2023/10/26 05:06:14;;;;;;;16.15;4.50;;;17.50;99.90;;;;;;4881160;29;20040;-82
2023/10/26 05:08:46;;;;;;;11.13;4.00;;;17.50;99.90;;;;;;4880669;29;20080;-81
2023/10/26 05:11:14;;;;;;;6.82;4.00;;;17.40;99.90;;;;;;4880047;29;20077;-82
2023/10/26 05:13:40;;;;;;;8.27;4.38;;;17.40;99.90;;;;;;4879617;29;20041;-83
2023/10/26 05:16:07;;;;;;;10.77;4.10;;;17.30;99.90;;;;;;4880811;29;20040;-83
2023/10/26 05:18:33;;;;;;;15.63;4.38;;;17.30;99.90;;;;;;4879656;29;20029;-84
2023/10/26 05:21:00;;;;;;;13.30;5.13;;;17.30;99.90;;;;;;4900157;29;20115;-82
2023/10/26 05:23:26;;;;;;;17.45;5.15;;;17.30;99.90;;;;;;4918248;29;20119;-83
2023/10/26 05:25:52;;;;;;;7.38;4.55;;;17.30;99.90;;;;;;4901245;29;20490;-83
2023/10/26 05:28:18;;;;;;;12.73;4.28;;;17.30;99.90;;;;;;4918105;29;20486;-83
2023/10/26 05:30:45;;;;;;;17.80;5.00;;;17.30;99.90;;;;;;4900894;29;20117;-86
2023/10/26 05:33:11;;;;;;;15.50;5.07;;;17.30;99.90;;;;;;4901703;29;20028;-85
2023/10/26 05:35:41;;;;;;;13.82;4.80;;;17.40;99.90;;;;;;4901263;29;20027;-82
2023/10/26 05:38:09;;;;;;;15.65;4.95;;;17.50;99.90;;;;;;4900875;29;20029;-82
2023/10/26 05:40:36;;;;;;;14.88;5.43;;;17.60;99.90;;;;;;4900787;29;20052;-86
2023/10/26 05:43:03;;;;;;;16.75;6.00;;;17.60;99.90;;;;;;4912593;29;20141;-85
2023/10/26 05:45:37;;;;;;;15.88;5.50;;;17.80;99.90;;;;;;4902033;29;20028;-86
2023/10/26 05:48:05;;;;;;;13.82;5.25;;;17.90;99.90;;;;;;4901465;29;20033;-85
2023/10/26 05:50:32;;;;;;;15.95;6.20;;;18.00;99.90;;;;;;4901348;29;20040;-85
2023/10/26 05:52:58;;;;;;;12.43;5.70;;;18.10;99.90;;;;;;4901330;29;20439;-85
2023/10/26 05:55:25;;;;;;;19.77;6.32;;;18.20;99.90;;;;;;4885917;29;20128;-84
2023/10/26 05:57:52;;;;;;;10.43;5.38;;;18.30;99.90;;;;;;4901302;29;20119;-85
2023/10/26 06:00:18;;;;;;;9.63;5.63;;;18.30;99.90;;;;;;4898085;29;20068;-85
2023/10/26 06:02:45;;;;;;;12.38;5.82;;;18.40;99.90;;;;;;4898037;29;20045;-84
2023/10/26 06:05:11;;;;;;;8.18;6.07;;;18.50;99.90;;;;;;4901212;29;20024;-85
2023/10/26 06:07:37;;;;;;;16.70;6.50;;;18.70;99.90;;;;;;4901030;29;20494;-85
2023/10/26 06:10:05;;;;;;;12.30;7.30;;;19.00;99.90;;;;;;4900951;29;20497;-85
2023/10/26 06:12:32;;;;;;;12.38;7.80;;;19.30;99.90;;;;;;4885247;29;20042;-85
2023/10/26 06:14:58;;;;;;;13.18;8.68;;;19.50;99.90;;;;;;4900878;29;20051;-84
2023/10/26 06:17:25;;;;;;;20.73;9.93;;;19.40;99.90;;;;;;4916868;29;20046;-85
2023/10/26 06:19:51;;;;;;;12.52;9.60;;;19.40;99.90;;;;;;4885544;29;20116;-85
2023/10/26 06:22:18;;;;;;;25.33;11.35;;;19.60;99.90;;;;;;4916117;29;20056;-85
2023/10/26 06:24:44;;;;;;;13.38;11.95;;;20.00;99.90;;;;;;4901002;29;20397;-84
2023/10/26 06:27:11;;;;;;;13.90;12.60;;;20.20;99.90;;;;;;4900775;29;20066;-85
2023/10/26 06:29:37;;;;;;;15.07;13.80;;;20.30;99.90;;;;;;4900924;29;20021;-86
2023/10/26 06:32:04;;;;;;;21.38;14.60;;;20.30;99.90;;;;;;4900841;29;20035;-85
2023/10/26 06:34:30;;;;;;;17.90;13.90;;;20.30;99.90;;;;;;4900361;29;20032;-85
2023/10/26 06:36:57;;;;;;;25.48;15.32;;;20.30;99.90;;;;;;4884831;29;20068;-85
2023/10/26 06:39:24;;;;;;;16.75;13.90;;;20.30;99.90;;;;;;4885048;29;20116;-85
2023/10/26 06:41:50;;;;;;;18.05;14.32;;;20.30;99.90;;;;;;4900414;29;20486;-85
2023/10/26 06:44:17;;;;;;;16.90;14.35;;;20.40;99.90;;;;;;4881900;29;20036;-85
2023/10/26 06:46:44;;;;;;;22.20;15.52;;;20.50;99.90;;;;;;4915905;29;20067;-85
2023/10/26 06:49:12;;;;;;;23.88;16.42;;;20.60;99.90;;;;;;4900118;29;20438;-85
2023/10/26 06:51:39;;;;;;;19.25;16.83;;;20.70;99.90;;;;;;4884578;29;20035;-85
2023/10/26 06:54:05;;;;;;;33.22;20.38;;;21.10;99.90;;;;;;4884715;29;20032;-85
2023/10/26 06:56:32;;;;;;;24.88;19.95;;;21.60;99.90;;;;;;4917125;29;20061;-85
2023/10/26 06:58:58;;;;;;;22.92;20.67;;;22.20;99.90;;;;;;4917496;29;20024;-85
2023/10/26 07:01:25;;;;;;;23.42;21.35;;;22.60;99.90;;;;;;4888036;29;20028;-84
2023/10/26 07:03:51;;;;;;;22.27;20.15;;;23.00;99.90;;;;;;4903604;29;20040;-85
2023/10/26 07:06:18;;;;;;;23.27;20.80;;;23.50;99.90;;;;;;4920634;29;20036;-84
2023/10/26 07:08:45;;;;;;;23.10;20.52;;;23.70;99.90;;;;;;4903776;29;20028;-84
2023/10/26 07:11:11;;;;;;;23.17;20.80;;;23.60;99.90;;;;;;4903639;29;20036;-85
2023/10/26 07:13:45;;;;;;;24.48;20.45;;;23.50;99.90;;;;;;4903780;29;20028;-85
2023/10/26 07:16:12;;;;;;;25.15;20.45;;;23.10;99.90;;;;;;4903650;29;20067;-85
2023/10/26 07:18:39;;;;;;;27.80;20.40;;;22.90;99.90;;;;;;4903801;29;20055;-86
2023/10/26 07:21:06;;;;;;;23.67;19.42;;;22.80;99.90;;;;;;4885123;29;20474;-85
2023/10/26 07:23:34;;;;;;;21.83;19.50;;;22.50;99.90;;;;;;4888256;29;20036;-85
2023/10/26 07:26:00;;;;;;;21.10;19.02;;;22.40;99.90;;;;;;4903719;29;20024;-85
2023/10/26 07:28:27;;;;;;;21.55;19.25;;;22.30;99.90;;;;;;4903730;29;20062;-86
2023/10/26 07:30:53;;;;;;;20.55;18.60;;;22.20;99.90;;;;;;4903818;29;20032;-85
2023/10/26 07:33:23;;;;;;;22.42;19.13;;;22.20;99.90;;;;;;4887924;29;20042;-86
2023/10/26 07:35:57;;;;;;;21.15;19.05;;;22.20;99.90;;;;;;4919605;29;20127;-84
2023/10/26 07:38:27;;;;;;;20.80;18.67;;;22.20;99.90;;;;;;4903336;29;20032;-84
2023/10/26 07:40:56;;;;;;;23.05;18.42;;;22.30;99.90;;;;;;4903252;29;20028;-83
2023/10/26 07:43:23;;;;;;;26.15;18.45;;;22.20;99.90;;;;;;4903335;29;20455;-85
2023/10/26 07:45:51;;;;;;;22.98;18.75;;;22.20;99.90;;;;;;4887765;29;20052;-84
2023/10/26 07:48:18;;;;;;;21.35;19.08;;;22.30;99.90;;;;;;4903152;29;20111;-84
2023/10/26 07:50:45;;;;;;;21.17;19.17;;;22.70;99.90;;;;;;4899746;29;20032;-84
2023/10/26 07:53:14;;;;;;;22.08;19.50;;;23.00;99.90;;;;;;4902739;29;20363;-84
2023/10/26 07:55:41;;;;;;;21.05;19.10;;;23.10;99.90;;;;;;4902743;29;20028;-84
2023/10/26 07:58:07;;;;;;;21.45;19.27;;;23.10;99.90;;;;;;4902732;29;20036;-84
2023/10/26 08:00:33;;;;;;;27.35;19.80;;;23.00;99.90;;;;;;4902901;29;20051;-86
2023/10/26 08:03:00;;;;;;;22.48;20.30;;;23.20;99.90;;;;;;4899669;29;20415;-86
2023/10/26 08:05:26;;;;;;;22.00;19.30;;;23.50;99.90;;;;;;4883970;29;20025;-84
2023/10/26 08:07:53;;;;;;;23.65;20.05;;;23.70;99.90;;;;;;4900230;29;20072;-85
2023/10/26 08:10:20;;;;;;;22.98;19.80;;;23.60;99.90;;;;;;4917731;29;20024;-82
2023/10/26 08:12:50;;;;;;;24.42;20.10;;;23.40;99.90;;;;;;4918257;29;20060;-85
2023/10/26 08:15:17;;;;;;;29.25;20.33;;;23.30;99.90;;;;;;4882985;29;20127;-83
2023/10/26 08:17:44;;;;;;;23.20;20.27;;;23.40;99.90;;;;;;4900354;29;20561;-83
2023/10/26 08:20:11;;;;;;;30.02;20.20;;;23.40;99.90;;;;;;4916033;29;20474;-82
2023/10/26 08:22:37;;;;;;;23.88;20.60;;;23.40;99.90;;;;;;4898595;29;20060;-82
2023/10/26 08:25:04;;;;;;;26.50;19.48;;;23.50;99.90;;;;;;4883283;29;20088;-81
2023/10/26 08:27:38;;;;;;;28.40;19.25;;;23.60;99.90;;;;;;4899142;29;20043;-82
2023/10/26 08:30:05;;;;;;;21.70;19.45;;;23.60;99.90;;;;;;4914325;29;20120;-82
2023/10/26 08:32:32;;;;;;;23.60;19.90;;;23.50;99.90;;;;;;4918908;29;20158;-82
2023/10/26 08:34:59;;;;;;;24.60;20.52;;;23.60;99.90;;;;;;4901928;29;20028;-82
2023/10/26 08:37:27;;;;;;;27.15;20.70;;;23.70;99.90;;;;;;4901887;29;20067;-83
2023/10/26 08:39:54;;;;;;;22.95;20.38;;;23.80;99.90;;;;;;4901668;29;20331;-81
2023/10/26 08:42:20;;;;;;;23.25;20.92;;;24.20;99.90;;;;;;4918784;29;20456;-84
2023/10/26 08:44:47;;;;;;;22.58;20.48;;;24.30;99.90;;;;;;4901625;29;20056;-82
2023/10/26 08:47:19;;;;;;;23.25;20.92;;;24.40;99.90;;;;;;4904902;29;20471;-83
2023/10/26 08:49:48;;;;;;;24.92;20.40;;;24.60;99.90;;;;;;4894098;29;20079;-82
2023/10/26 08:52:15;;;;;;;25.67;20.85;;;24.10;99.90;;;;;;4918401;29;20032;-82
2023/10/26 08:54:41;;;;;;;22.35;20.10;;;23.80;99.90;;;;;;4917271;29;20032;-82
2023/10/26 08:57:08;;;;;;;21.92;19.58;;;23.60;99.90;;;;;;4918584;29;20036;-85
2023/10/26 08:59:35;;;;;;;23.25;19.63;;;23.40;99.90;;;;;;4901367;29;20443;-83
2023/10/26 09:02:02;;;;;;;24.25;19.67;;;23.80;99.90;;;;;;4900995;29;20405;-82
2023/10/26 09:04:29;;;;;;;27.60;20.85;;;24.10;99.90;;;;;;4918367;29;20115;-82
2023/10/26 09:06:56;;;;;;;25.27;21.08;;;24.30;99.90;;;;;;4918547;29;20060;-84
2023/10/26 09:09:23;;;;;;;25.52;20.45;;;24.60;99.90;;;;;;4918062;29;20048;-83
2023/10/26 09:11:49;;;;;;;25.35;20.10;;;24.70;99.90;;;;;;4900700;29;20027;-82
2023/10/26 09:14:17;;;;;;;25.05;20.60;;;24.60;99.90;;;;;;4918138;29;20028;-82
2023/10/26 09:16:45;;;;;;;23.70;21.23;;;24.60;99.90;;;;;;4901224;29;20035;-82
2023/10/26 09:19:18;;;;;;;24.35;21.52;;;24.60;99.90;;;;;;4901002;29;20063;-82
2023/10/26 09:21:49;;;;;;;24.92;22.00;;;24.90;99.90;;;;;;4906336;29;20048;-82
2023/10/26 09:24:24;;;;;;;23.65;21.23;;;25.10;99.90;;;;;;4899399;29;20427;-83
2023/10/26 09:26:55;;;;;;;26.85;21.00;;;25.10;99.90;;;;;;4900752;29;20076;-82
2023/10/26 09:29:42;;;;;;;30.98;22.52;;;25.50;99.90;;;;;;4917789;29;20036;-83
2023/10/26 09:32:09;;;;;;;30.92;22.30;;;25.70;99.90;;;;;;4917768;29;20035;-82
2023/10/26 09:34:41;;;;;;;26.38;22.25;;;25.90;99.90;;;;;;4916462;29;20020;-83
2023/10/26 09:37:11;;;;;;;24.52;22.40;;;26.20;99.90;;;;;;4900646;29;20036;-82
2023/10/26 09:39:41;;;;;;;24.17;21.90;;;26.50;99.90;;;;;;4900267;29;20036;-88
2023/10/26 09:42:12;;;;;;;25.27;21.80;;;25.90;99.90;;;;;;4901839;29;20087;-88
2023/10/26 09:44:38;;;;;;;24.05;21.38;;;25.50;99.90;;;;;;4901851;29;20494;-88
2023/10/26 09:47:06;;;;;;;26.25;21.65;;;25.70;99.90;;;;;;4901819;29;20028;-89
2023/10/26 09:49:33;;;;;;;25.52;21.90;;;25.30;99.90;;;;;;4902024;29;20028;-88
2023/10/26 09:51:59;;;;;;;28.85;22.95;;;24.60;99.90;;;;;;4901507;29;20386;-88
2023/10/26 09:54:38;;;;;;;31.45;22.60;;;24.70;99.90;;;;;;4901869;29;20035;-88
2023/10/26 09:57:41;;;;;;;24.75;22.13;;;24.80;99.90;;;;;;4901838;29;20035;-87
2023/10/26 10:00:11;;;;;;;25.02;22.65;;;25.00;99.90;;;;;;4897994;29;20062;-88
2023/10/26 10:02:41;;;;;;;27.42;22.45;;;24.70;99.90;;;;;;4901743;29;20494;-88
2023/10/26 10:05:47;;;;;;;25.40;21.40;;;24.60;99.90;;;;;;4886073;29;20036;-88
2023/10/26 10:08:55;;;;;;;29.83;21.98;;;24.50;99.90;;;;;;4897861;29;20039;-88
2023/10/26 10:11:22;;;;;;;29.25;21.90;;;24.10;99.90;;;;;;4877168;29;20066;-88
2023/10/26 10:13:49;;;;;;;28.98;21.67;;;24.00;99.90;;;;;;4885616;29;20028;-87
2023/10/26 10:16:45;;;;;;;31.30;21.77;;;23.80;99.90;;;;;;4899783;29;20115;-87
2023/10/26 10:19:23;;;;;;;32.95;21.92;;;23.70;99.90;;;;;;4906152;29;20047;-87
2023/10/26 10:21:51;;;;;;;26.90;21.60;;;23.80;99.90;;;;;;4901241;29;20076;-87
2023/10/26 10:24:39;;;;;;;29.00;22.83;;;24.00;99.90;;;;;;4901760;29;20056;-88
2023/10/26 10:27:15;;;;;;;25.35;21.90;;;24.10;99.90;;;;;;4901356;29;20046;-88
2023/10/26 10:29:43;;;;;;;29.92;21.60;;;24.00;99.90;;;;;;4901046;29;20034;-88
2023/10/26 10:32:10;;;;;;;32.90;22.08;;;24.00;99.90;;;;;;4873229;29;20020;-88
2023/10/26 10:34:51;;;;;;;25.30;21.67;;;23.80;99.90;;;;;;4897777;29;20087;-88
2023/10/26 10:37:21;;;;;;;29.42;20.98;;;23.80;99.90;;;;;;4882539;29;20035;-88
2023/10/26 10:40:12;;;;;;;22.85;20.25;;;23.70;99.90;;;;;;4882546;29;20097;-88
2023/10/26 10:42:50;;;;;;;26.80;22.25;;;23.70;99.90;;;;;;4898670;29;20486;-88
2023/10/26 10:45:18;;;;;;;24.13;21.80;;;23.70;99.90;;;;;;4917929;29;20033;-87
2023/10/26 10:47:49;;;;;;;29.60;22.08;;;23.70;99.90;;;;;;4917579;29;20028;-88
2023/10/26 10:50:19;;;;;;;27.50;22.10;;;23.80;99.90;;;;;;4914339;29;20092;-88
2023/10/26 10:52:56;;;;;;;26.85;19.92;;;23.80;99.90;;;;;;4916778;29;20115;-87
2023/10/26 10:55:27;;;;;;;24.75;21.77;;;23.70;99.90;;;;;;4900402;29;20032;-83
2023/10/26 10:57:59;;;;;;;24.40;21.73;;;23.80;99.90;;;;;;4916668;29;20032;-81
2023/10/26 11:00:41;;;;;;;24.25;22.05;;;23.80;99.90;;;;;;4916755;29;20036;-82
2023/10/26 11:03:08;;;;;;;24.83;22.08;;;23.90;99.90;;;;;;4896616;29;20124;-82
2023/10/26 11:05:40;;;;;;;27.70;21.85;;;23.90;99.90;;;;;;4910448;29;20119;-82
2023/10/26 11:08:08;;;;;;;24.20;21.65;;;24.00;99.90;;;;;;4916631;29;20158;-83
2023/10/26 11:10:38;;;;;;;27.80;19.60;;;24.20;99.90;;;;;;4916540;29;20025;-82
2023/10/26 11:13:05;;;;;;;29.83;19.98;;;24.10;99.90;;;;;;4897728;29;20428;-83
2023/10/26 11:15:37;;;;;;;24.77;19.40;;;24.10;99.90;;;;;;4896706;29;20032;-83
2023/10/26 11:18:13;;;;;;;29.48;20.48;;;24.30;99.90;;;;;;4897241;29;20115;-86
2023/10/26 11:20:46;;;;;;;27.60;20.02;;;24.70;99.90;;;;;;4913357;29;20505;-83
2023/10/26 11:23:16;;;;;;;27.20;20.27;;;25.10;99.90;;;;;;4899510;29;20490;-84
2023/10/26 11:25:46;;;;;;;27.73;21.13;;;25.00;99.90;;;;;;4899580;29;20036;-83
2023/10/26 11:28:13;;;;;;;25.83;21.45;;;25.10;99.90;;;;;;4899861;29;20051;-82
2023/10/26 11:30:49;;;;;;;28.80;20.77;;;25.10;99.90;;;;;;4899305;29;20103;-83
2023/10/26 11:33:39;;;;;;;23.77;21.25;;;25.00;99.90;;;;;;4899243;29;20029;-83
2023/10/26 11:36:11;;;;;;;23.60;21.50;;;25.20;99.90;;;;;;4899153;29;20087;-83
2023/10/26 11:38:51;;;;;;;24.85;22.58;;;25.30;99.90;;;;;;4916434;29;20047;-83
2023/10/26 11:41:22;;;;;;;25.52;23.20;;;25.20;99.90;;;;;;4915814;29;20079;-83
2023/10/26 11:43:48;;;;;;;24.70;22.27;;;25.10;99.90;;;;;;4916295;29;20134;-83
2023/10/26 11:46:15;;;;;;;26.02;22.23;;;25.00;99.90;;;;;;4886063;29;20079;-84
2023/10/26 11:48:42;;;;;;;23.40;21.30;;;24.90;99.90;;;;;;4887400;29;20040;-85
2023/10/26 11:51:08;;;;;;;25.92;22.13;;;24.80;99.90;;;;;;4903317;29;20482;-87
2023/10/26 11:53:35;;;;;;;26.48;21.60;;;24.80;99.90;;;;;;4869289;29;20109;-84
2023/10/26 11:56:02;;;;;;;24.98;21.83;;;24.90;99.90;;;;;;4900846;29;20084;-87
2023/10/26 11:58:29;;;;;;;23.90;21.17;;;24.90;99.90;;;;;;4884063;29;20163;-81
2023/10/26 12:00:55;;;;;;;23.98;21.63;;;24.70;99.90;;;;;;4902118;29;20025;-82
2023/10/26 12:03:22;;;;;;;23.52;20.52;;;24.70;99.90;;;;;;4902092;29;20040;-84
2023/10/26 12:05:48;;;;;;;23.40;21.10;;;24.80;99.90;;;;;;4918733;29;20024;-84
2023/10/26 12:08:14;;;;;;;25.85;21.70;;;24.80;99.90;;;;;;4902411;29;20036;-84
2023/10/26 12:10:41;;;;;;;27.40;21.20;;;24.90;99.90;;;;;;4902960;29;20024;-84
2023/10/26 12:13:08;;;;;;;26.23;20.77;;;24.90;99.90;;;;;;4902991;29;20508;-83
2023/10/26 12:15:37;;;;;;;26.80;20.90;;;24.90;99.90;;;;;;4902405;29;20163;-84
2023/10/26 12:18:04;;;;;;;23.50;21.23;;;25.00;99.90;;;;;;4883918;29;20029;-84
2023/10/26 12:20:30;;;;;;;30.08;21.60;;;25.00;99.90;;;;;;4883654;29;20024;-82
2023/10/26 12:22:57;;;;;;;24.20;20.85;;;24.70;99.90;;;;;;4895282;29;20056;-86
2023/10/26 12:25:23;;;;;;;27.58;21.75;;;24.50;99.90;;;;;;4880843;29;20029;-86
2023/10/26 12:27:50;;;;;;;30.90;20.30;;;24.40;99.90;;;;;;4880845;29;20039;-83
2023/10/26 12:30:16;;;;;;;28.60;20.60;;;24.10;99.90;;;;;;4881743;29;20077;-86
2023/10/26 12:32:43;;;;;;;26.50;20.88;;;24.30;99.90;;;;;;4880659;29;20077;-85
2023/10/26 12:35:10;;;;;;;31.40;21.67;;;24.50;99.90;;;;;;4880370;29;20379;-84
2023/10/26 12:37:37;;;;;;;26.48;21.98;;;24.60;99.90;;;;;;4880563;29;20480;-85
2023/10/26 12:40:08;;;;;;;24.05;21.60;;;24.50;99.90;;;;;;4880983;29;20050;-85